createdAt,value
2017-11-05T12:05:14.259Z,1008.45
2017-11-05T12:06:36.892Z,1008.42
2017-11-05T12:07:59.095Z,1008.41
2017-11-05T12:09:20.981Z,1008.49
2017-11-05T12:10:43.492Z,1008.45
2017-11-05T12:12:05.752Z,1008.48
2017-11-05T12:13:27.982Z,1008.5
2017-11-05T12:14:50.250Z,1008.48
2017-11-05T12:16:12.780Z,1008.48
2017-11-05T12:17:34.668Z,1008.49
2017-11-05T12:18:56.541Z,1008.51
2017-11-05T12:20:18.833Z,1008.54
2017-11-05T12:21:41.014Z,1008.55
2017-11-05T12:23:03.251Z,1008.51
2017-11-05T12:24:24.798Z,1008.54
2017-11-05T12:25:47.044Z,1008.56
2017-11-05T12:27:09.252Z,1008.58
2017-11-05T12:28:31.842Z,1008.65
2017-11-05T12:29:54.390Z,1008.7
2017-11-05T12:31:16.963Z,1008.7
2017-11-05T12:32:38.565Z,1008.77
2017-11-05T12:34:01.107Z,1008.77
2017-11-05T12:35:23.022Z,1008.73
2017-11-05T12:36:45.222Z,1008.76
2017-11-05T12:38:07.103Z,1008.76
2017-11-05T12:39:29.354Z,1008.79
2017-11-05T12:40:51.228Z,1008.81
2017-11-05T12:42:13.524Z,1008.84
2017-11-05T12:43:35.394Z,1008.85
2017-11-05T12:44:57.618Z,1008.85
2017-11-05T12:46:19.574Z,1008.8
2017-11-05T12:47:42.116Z,1008.78
2017-11-05T12:49:04.328Z,1008.82
2017-11-05T12:50:26.584Z,1008.87
2017-11-05T12:51:48.813Z,1008.85
2017-11-05T12:53:11.411Z,1008.85
2017-11-05T12:54:33.598Z,1008.82
2017-11-05T12:55:55.461Z,1008.87
2017-11-05T12:57:17.723Z,1008.88
2017-11-05T12:58:39.607Z,1008.93
2017-11-05T13:00:02.152Z,1008.96
2017-11-05T13:01:24.474Z,1008.91
2017-11-05T13:02:46.672Z,1008.95
2017-11-05T13:04:09.207Z,1008.88
2017-11-05T13:05:31.464Z,1008.99
2017-11-05T13:06:53.714Z,1009.01
2017-11-05T13:08:16.280Z,1009
2017-11-05T13:09:38.795Z,1009
2017-11-05T13:11:00.681Z,1008.94
2017-11-05T13:12:22.596Z,1009.04
2017-11-05T13:13:44.443Z,1009.06
2017-11-05T13:15:06.954Z,1009.09
2017-11-05T13:16:29.213Z,1009.17
2017-11-05T13:17:51.746Z,1009.12
2017-11-05T13:19:13.622Z,1009.07
2017-11-05T13:20:36.256Z,1009.06
2017-11-05T13:21:58.465Z,1009.04
2017-11-05T13:23:20.677Z,1009.09
2017-11-05T13:24:42.962Z,1009.14
2017-11-05T13:26:04.942Z,1009.16
2017-11-05T13:27:27.145Z,1009.2
2017-11-05T13:28:49.365Z,1009.15
2017-11-05T13:30:11.579Z,1009.21
2017-11-05T13:31:33.835Z,1009.26
2017-11-05T13:32:56.357Z,1009.2
2017-11-05T13:34:18.927Z,1009.18
2017-11-05T13:35:41.303Z,1009.27
2017-11-05T13:37:03.169Z,1009.31
2017-11-05T13:38:25.734Z,1009.35
2017-11-05T13:39:48.394Z,1009.36
2017-11-05T13:41:10.954Z,1009.34
2017-11-05T13:42:33.158Z,1009.3
2017-11-05T13:43:55.715Z,1009.29
2017-11-05T13:45:17.583Z,1009.3
2017-11-05T13:46:40.206Z,1009.36
2017-11-05T13:48:02.418Z,1009.33
2017-11-05T13:49:24.614Z,1009.33
2017-11-05T13:50:46.815Z,1009.35
2017-11-05T13:52:09.366Z,1009.35
2017-11-05T13:53:31.669Z,1009.43
2017-11-05T13:54:54.242Z,1009.47
2017-11-05T13:56:16.449Z,1009.49
2017-11-05T13:57:39.034Z,1009.5
2017-11-05T13:59:01.227Z,1009.48
2017-11-05T14:00:23.092Z,1009.51
2017-11-05T14:01:45.102Z,1009.5
2017-11-05T14:03:07.745Z,1009.51
2017-11-05T14:04:30.405Z,1009.53
2017-11-05T14:05:52.624Z,1009.55
2017-11-05T14:07:15.465Z,1009.57
2017-11-05T14:08:38.023Z,1009.55
2017-11-05T14:10:00.690Z,1009.61
2017-11-05T14:11:22.597Z,1009.58
2017-11-05T14:12:45.147Z,1009.63
2017-11-05T14:14:07.682Z,1009.59
2017-11-05T14:15:29.884Z,1009.64
2017-11-05T14:16:52.186Z,1009.64
2017-11-05T14:18:14.773Z,1009.68
2017-11-05T14:19:36.654Z,1009.7
2017-11-05T14:20:58.555Z,1009.64
2017-11-05T14:22:21.074Z,1009.68
2017-11-05T14:23:43.386Z,1009.69
2017-11-05T14:25:06.053Z,1009.66
2017-11-05T14:26:28.015Z,1009.69
2017-11-05T14:27:50.231Z,1009.72
2017-11-05T14:29:12.096Z,1009.73
2017-11-05T14:30:34.648Z,1009.76
2017-11-05T14:31:57.192Z,1009.75
2017-11-05T14:33:19.750Z,1009.78
2017-11-05T14:34:42.298Z,1009.8
2017-11-05T14:36:04.853Z,1009.75
2017-11-05T14:37:27.416Z,1009.79
2017-11-05T14:38:49.974Z,1009.79
2017-11-05T14:40:12.166Z,1009.82
2017-11-05T14:41:34.384Z,1009.84
2017-11-05T14:42:57.027Z,1009.85
2017-11-05T14:44:19.585Z,1009.86
2017-11-05T14:45:41.803Z,1009.85
2017-11-05T14:47:03.995Z,1009.87
2017-11-05T14:48:26.557Z,1009.92
2017-11-05T14:49:49.139Z,1009.94
2017-11-05T14:51:11.704Z,1009.95
2017-11-05T14:52:34.002Z,1009.97
2017-11-05T14:53:56.196Z,1009.97
2017-11-05T14:55:18.747Z,1010.01
2017-11-05T14:56:40.966Z,1009.99
2017-11-05T14:58:03.515Z,1010.02
2017-11-05T14:59:26.073Z,1010.03
2017-11-05T15:00:48.597Z,1010.04
2017-11-05T15:02:11.228Z,1010.04
2017-11-05T15:03:33.744Z,1010.05
2017-11-05T15:04:56.365Z,1010.07
2017-11-05T15:06:18.532Z,1010.06
2017-11-05T15:07:41.061Z,1010.05
2017-11-05T15:09:03.708Z,1010.11
2017-11-05T15:10:26.038Z,1010.14
2017-11-05T15:11:47.992Z,1010.16
2017-11-05T15:13:10.584Z,1010.12
2017-11-05T15:14:32.790Z,1010.15
2017-11-05T15:15:55.002Z,1010.17
2017-11-05T15:17:16.856Z,1010.18
2017-11-05T15:18:39.393Z,1010.2
2017-11-05T15:20:01.585Z,1010.22
2017-11-05T15:21:23.516Z,1010.24
2017-11-05T15:22:45.385Z,1010.28
2017-11-05T15:24:08.056Z,1010.28
2017-11-05T15:25:30.586Z,1010.29
2017-11-05T15:26:52.467Z,1010.28
2017-11-05T15:28:14.657Z,1010.32
2017-11-05T15:29:37.357Z,1010.31
2017-11-05T15:30:59.921Z,1010.33
2017-11-05T15:32:22.148Z,1010.4
2017-11-05T15:33:44.732Z,1010.4
2017-11-05T15:35:07.240Z,1010.45
2017-11-05T15:36:29.797Z,1010.45
2017-11-05T15:37:52.001Z,1010.47
2017-11-05T15:39:14.573Z,1010.52
2017-11-05T15:40:37.105Z,1010.57
2017-11-05T15:41:59.626Z,1010.58
2017-11-05T15:43:22.161Z,1010.58
2017-11-05T15:44:44.711Z,1010.63
2017-11-05T15:46:07.316Z,1010.7
2017-11-05T15:47:29.886Z,1010.69
2017-11-05T15:48:52.127Z,1010.7
2017-11-05T15:50:14.694Z,1010.76
2017-11-05T15:51:37.246Z,1010.79
2017-11-05T15:52:59.785Z,1010.8
2017-11-05T15:54:21.984Z,1010.85
2017-11-05T15:55:44.282Z,1010.86
2017-11-05T15:57:06.839Z,1010.85
2017-11-05T15:58:29.385Z,1010.87
2017-11-05T15:59:51.923Z,1010.93
2017-11-05T16:01:14.465Z,1010.98
2017-11-05T16:02:36.723Z,1011.02
2017-11-05T16:03:58.934Z,1010.99
2017-11-05T16:05:20.824Z,1011
2017-11-05T16:06:43.654Z,1011
2017-11-05T16:08:06.199Z,1010.98
2017-11-05T16:09:28.395Z,1011.05
2017-11-05T16:10:50.256Z,1011.06
2017-11-05T16:12:12.471Z,1011.14
2017-11-05T16:13:35.105Z,1011.12
2017-11-05T16:14:56.976Z,1011.14
2017-11-05T16:16:19.548Z,1011.17
2017-11-05T16:17:42.077Z,1011.2
2017-11-05T16:19:04.778Z,1011.18
2017-11-05T16:20:27.358Z,1011.24
2017-11-05T16:21:50.007Z,1011.22
2017-11-05T16:23:12.674Z,1011.27
2017-11-05T16:24:34.895Z,1011.29
2017-11-05T16:25:57.513Z,1011.32
2017-11-05T16:27:20.069Z,1011.34
2017-11-05T16:28:42.323Z,1011.4
2017-11-05T16:30:04.635Z,1011.4
2017-11-05T16:31:26.904Z,1011.44
2017-11-05T16:32:49.453Z,1011.44
2017-11-05T16:34:11.993Z,1011.44
2017-11-05T16:35:34.549Z,1011.49
2017-11-05T16:36:56.069Z,1011.53
2017-11-05T16:38:17.949Z,1011.57
2017-11-05T16:39:40.524Z,1011.58
2017-11-05T16:41:03.045Z,1011.6
2017-11-05T16:42:25.648Z,1011.57
2017-11-05T16:43:47.858Z,1011.6
2017-11-05T16:45:10.449Z,1011.59
2017-11-05T16:46:32.801Z,1011.68
2017-11-05T16:47:55.027Z,1011.64
2017-11-05T16:49:17.547Z,1011.65
2017-11-05T16:50:40.235Z,1011.68
2017-11-05T16:52:02.832Z,1011.76
2017-11-05T16:53:25.056Z,1011.76
2017-11-05T16:54:47.627Z,1011.78
2017-11-05T16:56:09.965Z,1011.72
2017-11-05T16:57:31.832Z,1011.77
2017-11-05T16:58:54.412Z,1011.78
2017-11-05T17:00:16.922Z,1011.79
2017-11-05T17:01:39.245Z,1011.84
2017-11-05T17:03:01.792Z,1011.9
2017-11-05T17:04:24.324Z,1011.95
2017-11-05T17:05:46.956Z,1011.98
2017-11-05T17:07:09.228Z,1011.98
2017-11-05T17:08:31.785Z,1012.03
2017-11-05T17:09:53.373Z,1012.05
2017-11-05T17:11:15.936Z,1012.08
2017-11-05T17:12:38.197Z,1012.1
2017-11-05T17:14:00.739Z,1012.08
2017-11-05T17:15:22.976Z,1012.11
2017-11-05T17:16:45.514Z,1012.16
2017-11-05T17:18:08.084Z,1012.15
2017-11-05T17:19:30.598Z,1012.16
2017-11-05T17:20:53.166Z,1012.17
2017-11-05T17:22:15.367Z,1012.19
2017-11-05T17:23:38.074Z,1012.19
2017-11-05T17:25:00.284Z,1012.2
2017-11-05T17:26:22.594Z,1012.23
2017-11-05T17:27:44.806Z,1012.24
2017-11-05T17:29:07.330Z,1012.3
2017-11-05T17:30:29.932Z,1012.32
2017-11-05T17:31:52.165Z,1012.3
2017-11-05T17:33:14.496Z,1012.37
2017-11-05T17:34:37.080Z,1012.37
2017-11-05T17:35:59.328Z,1012.39
2017-11-05T17:37:21.856Z,1012.43
2017-11-05T17:38:43.456Z,1012.42
2017-11-05T17:40:06.011Z,1012.44
2017-11-05T17:41:27.871Z,1012.44
2017-11-05T17:42:50.215Z,1012.49
2017-11-05T17:44:12.416Z,1012.5
2017-11-05T17:45:34.282Z,1012.51
2017-11-05T17:46:56.862Z,1012.54
2017-11-05T17:48:19.445Z,1012.58
2017-11-05T17:49:41.039Z,1012.6
2017-11-05T17:51:02.924Z,1012.59
2017-11-05T17:52:25.467Z,1012.62
2017-11-05T17:53:47.684Z,1012.6
2017-11-05T17:55:10.218Z,1012.59
2017-11-05T17:56:32.107Z,1012.58
2017-11-05T17:57:54.436Z,1012.61
2017-11-05T17:59:17.012Z,1012.65
2017-11-05T18:00:39.226Z,1012.64
2017-11-05T18:02:01.759Z,1012.64
2017-11-05T18:03:23.946Z,1012.66
2017-11-05T18:04:46.502Z,1012.71
2017-11-05T18:06:08.411Z,1012.77
2017-11-05T18:07:30.934Z,1012.75
2017-11-05T18:08:52.797Z,1012.76
2017-11-05T18:10:15.015Z,1012.76
2017-11-05T18:11:37.541Z,1012.78
2017-11-05T18:12:59.497Z,1012.76
2017-11-05T18:14:22.055Z,1012.78
2017-11-05T18:15:44.589Z,1012.77
2017-11-05T18:17:07.109Z,1012.81
2017-11-05T18:18:29.414Z,1012.81
2017-11-05T18:19:51.641Z,1012.78
2017-11-05T18:21:14.194Z,1012.77
2017-11-05T18:22:36.719Z,1012.8
2017-11-05T18:23:59.097Z,1012.8
2017-11-05T18:25:20.981Z,1012.82
2017-11-05T18:26:43.528Z,1012.82
2017-11-05T18:28:06.108Z,1012.82
2017-11-05T18:29:28.643Z,1012.85
2017-11-05T18:30:50.868Z,1012.89
2017-11-05T18:32:13.381Z,1012.88
2017-11-05T18:33:35.774Z,1012.92
2017-11-05T18:34:57.983Z,1012.95
2017-11-05T18:36:20.529Z,1012.99
2017-11-05T18:37:42.739Z,1012.99
2017-11-05T18:39:04.929Z,1013
2017-11-05T18:40:27.471Z,1012.99
2017-11-05T18:41:49.496Z,1013.02
2017-11-05T18:43:11.704Z,1012.99
2017-11-05T18:44:34.321Z,1013.07
2017-11-05T18:45:56.894Z,1013.13
2017-11-05T18:47:18.854Z,1013.13
2017-11-05T18:48:41.069Z,1013.16
2017-11-05T18:50:03.623Z,1013.14
2017-11-05T18:51:25.915Z,1013.19
2017-11-05T18:52:48.544Z,1013.15
2017-11-05T18:54:11.133Z,1013.14
2017-11-05T18:55:33.835Z,1013.17
2017-11-05T18:56:56.025Z,1013.17
2017-11-05T18:58:18.686Z,1013.14
2017-11-05T18:59:41.222Z,1013.18
2017-11-05T19:01:03.444Z,1013.2
2017-11-05T19:02:25.421Z,1013.18
2017-11-05T19:03:47.997Z,1013.21
2017-11-05T19:05:10.576Z,1013.2
2017-11-05T19:06:32.134Z,1013.22
2017-11-05T19:07:54.746Z,1013.25
2017-11-05T19:09:17.125Z,1013.3
2017-11-05T19:10:39.670Z,1013.27
2017-11-05T19:12:01.888Z,1013.31
2017-11-05T19:13:24.437Z,1013.36
2017-11-05T19:14:46.996Z,1013.36
2017-11-05T19:16:09.537Z,1013.39
2017-11-05T19:17:32.115Z,1013.41
2017-11-05T19:18:54.691Z,1013.37
2017-11-05T19:20:17.226Z,1013.39
2017-11-05T19:21:39.789Z,1013.41
2017-11-05T19:23:01.969Z,1013.42
2017-11-05T19:24:23.825Z,1013.46
2017-11-05T19:25:45.695Z,1013.48
2017-11-05T19:27:07.896Z,1013.49
2017-11-05T19:28:30.462Z,1013.5
2017-11-05T19:29:52.542Z,1013.49
2017-11-05T19:31:15.093Z,1013.51
2017-11-05T19:32:37.283Z,1013.55
2017-11-05T19:33:59.506Z,1013.63
2017-11-05T19:35:22.023Z,1013.68
2017-11-05T19:36:44.641Z,1013.67
2017-11-05T19:38:06.865Z,1013.73
2017-11-05T19:39:29.416Z,1013.75
2017-11-05T19:40:51.976Z,1013.78
2017-11-05T19:42:14.559Z,1013.8
2017-11-05T19:43:36.425Z,1013.82
2017-11-05T19:44:59.006Z,1013.86
2017-11-05T19:46:21.638Z,1013.9
2017-11-05T19:47:44.208Z,1013.87
2017-11-05T19:49:06.393Z,1013.84
2017-11-05T19:50:29.046Z,1013.84
2017-11-05T19:51:51.655Z,1013.89
2017-11-05T19:53:13.871Z,1013.87
2017-11-05T19:54:36.191Z,1013.87
2017-11-05T19:55:58.491Z,1013.89
2017-11-05T19:57:20.599Z,1013.92
2017-11-05T19:58:43.309Z,1013.97
2017-11-05T20:00:05.947Z,1013.93
2017-11-05T20:01:28.473Z,1013.88
2017-11-05T20:02:50.696Z,1013.92
2017-11-05T20:04:12.987Z,1013.94
2017-11-05T20:05:35.714Z,1013.96
2017-11-05T20:06:58.469Z,1013.94
2017-11-05T20:08:20.704Z,1013.97
2017-11-05T20:09:43.680Z,1013.99
2017-11-05T20:11:06.166Z,1014.01
2017-11-05T20:12:28.412Z,1014.04
2017-11-05T20:13:50.616Z,1014.06
2017-11-05T20:15:13.072Z,1014.02
2017-11-05T20:16:35.688Z,1014.11
2017-11-05T20:17:58.571Z,1014.07
2017-11-05T20:19:21.181Z,1014.12
2017-11-05T20:20:43.509Z,1014.09
2017-11-05T20:22:06.232Z,1014.09
2017-11-05T20:23:28.478Z,1014.09
2017-11-05T20:24:51.097Z,1014.11
2017-11-05T20:26:13.651Z,1014.08
2017-11-05T20:27:35.515Z,1014.11
2017-11-05T20:28:58.037Z,1014.16
2017-11-05T20:30:20.586Z,1014.16
2017-11-05T20:31:42.795Z,1014.15
2017-11-05T20:33:05.019Z,1014.2
2017-11-05T20:34:26.883Z,1014.16
2017-11-05T20:35:49.025Z,1014.17
2017-11-05T20:37:11.226Z,1014.17
2017-11-05T20:38:33.774Z,1014.17
2017-11-05T20:39:56.013Z,1014.18
2017-11-05T20:41:18.506Z,1014.21
2017-11-05T20:42:41.066Z,1014.25
2017-11-05T20:44:03.284Z,1014.29
2017-11-05T20:45:25.215Z,1014.31
2017-11-05T20:46:47.548Z,1014.3
2017-11-05T20:48:09.757Z,1014.33
2017-11-05T20:49:32.522Z,1014.33
2017-11-05T20:50:55.406Z,1014.35
2017-11-05T20:52:17.591Z,1014.4
2017-11-05T20:53:40.145Z,1014.4
2017-11-05T20:55:02.716Z,1014.43
2017-11-05T20:56:25.373Z,1014.4
2017-11-05T20:57:47.647Z,1014.46
2017-11-05T20:59:09.865Z,1014.47
2017-11-05T21:00:32.060Z,1014.51
2017-11-05T21:01:54.626Z,1014.54
2017-11-05T21:03:17.000Z,1014.54
2017-11-05T21:04:38.944Z,1014.57
2017-11-05T21:06:01.556Z,1014.6
2017-11-05T21:07:23.778Z,1014.58
2017-11-05T21:08:46.109Z,1014.58
2017-11-05T21:10:08.368Z,1014.55
2017-11-05T21:11:30.937Z,1014.58
2017-11-05T21:12:52.851Z,1014.54
2017-11-05T21:14:15.068Z,1014.55
2017-11-05T21:15:37.630Z,1014.63
2017-11-05T21:16:59.851Z,1014.68
2017-11-05T21:18:21.419Z,1014.66
2017-11-05T21:19:43.967Z,1014.72
2017-11-05T21:21:06.540Z,1014.67
2017-11-05T21:22:28.807Z,1014.7
2017-11-05T21:23:51.406Z,1014.73
2017-11-05T21:25:13.638Z,1014.78
2017-11-05T21:26:36.201Z,1014.73
2017-11-05T21:27:59.006Z,1014.79
2017-11-05T21:29:21.700Z,1014.84
2017-11-05T21:30:44.230Z,1014.78
2017-11-05T21:32:06.853Z,1014.82
2017-11-05T21:33:28.919Z,1014.87
2017-11-05T21:34:51.127Z,1014.87
2017-11-05T21:36:13.365Z,1014.87
2017-11-05T21:37:35.966Z,1014.81
2017-11-05T21:38:58.308Z,1014.83
2017-11-05T21:40:20.978Z,1014.79
2017-11-05T21:41:43.492Z,1014.86
2017-11-05T21:43:05.379Z,1014.88
2017-11-05T21:44:27.996Z,1014.93
2017-11-05T21:45:50.585Z,1014.92
2017-11-05T21:47:13.120Z,1014.95
2017-11-05T21:48:35.382Z,1014.92
2017-11-05T21:49:57.928Z,1014.94
2017-11-05T21:51:20.524Z,1014.91
2017-11-05T21:52:43.076Z,1014.9
2017-11-05T21:54:05.382Z,1014.92
2017-11-05T21:55:27.994Z,1014.98
2017-11-05T21:56:50.196Z,1014.97
2017-11-05T21:58:12.400Z,1015
2017-11-05T21:59:34.242Z,1015.01
2017-11-05T22:00:56.464Z,1015.01
2017-11-05T22:02:19.340Z,1015.03
2017-11-05T22:03:41.532Z,1014.99
2017-11-05T22:05:03.703Z,1015.03
2017-11-05T22:06:24.898Z,1015.02
2017-11-05T22:07:47.073Z,1015.05
2017-11-05T22:09:09.281Z,1015.08
2017-11-05T22:10:31.880Z,1015.11
2017-11-05T22:11:54.425Z,1015.08
2017-11-05T22:13:16.984Z,1015.13
2017-11-05T22:14:39.227Z,1015.11
2017-11-05T22:16:01.093Z,1015.1
2017-11-05T22:17:22.956Z,1015.13
2017-11-05T22:18:45.136Z,1015.12
2017-11-05T22:20:07.491Z,1015.17
2017-11-05T22:21:29.681Z,1015.09
2017-11-05T22:22:51.868Z,1015.09
2017-11-05T22:24:14.069Z,1015.1
2017-11-05T22:25:36.293Z,1015.15
2017-11-05T22:26:58.592Z,1015.15
2017-11-05T22:28:20.490Z,1015.15
2017-11-05T22:29:42.695Z,1015.14
2017-11-05T22:31:05.284Z,1015.19
2017-11-05T22:32:27.538Z,1015.18
2017-11-05T22:33:50.055Z,1015.17
2017-11-05T22:35:12.264Z,1015.21
2017-11-05T22:36:34.446Z,1015.24
2017-11-05T22:37:56.971Z,1015.24
2017-11-05T22:39:18.835Z,1015.25
2017-11-05T22:40:41.037Z,1015.21
2017-11-05T22:42:03.233Z,1015.28
2017-11-05T22:43:25.150Z,1015.29
2017-11-05T22:44:47.096Z,1015.31
2017-11-05T22:46:09.314Z,1015.35
2017-11-05T22:47:31.506Z,1015.35
2017-11-05T22:48:53.714Z,1015.36
2017-11-05T22:50:16.284Z,1015.44
2017-11-05T22:51:38.141Z,1015.44
2017-11-05T22:53:00.662Z,1015.48
2017-11-05T22:54:23.265Z,1015.46
2017-11-05T22:55:45.781Z,1015.47
2017-11-05T22:57:07.977Z,1015.52
2017-11-05T22:58:29.912Z,1015.52
2017-11-05T22:59:52.437Z,1015.51
2017-11-05T23:01:14.336Z,1015.52
2017-11-05T23:02:36.863Z,1015.56
2017-11-05T23:03:59.040Z,1015.5
2017-11-05T23:05:21.623Z,1015.54
2017-11-05T23:06:43.172Z,1015.56
2017-11-05T23:08:05.714Z,1015.52
2017-11-05T23:09:27.333Z,1015.54
2017-11-05T23:10:49.866Z,1015.56
2017-11-05T23:12:12.091Z,1015.56
2017-11-05T23:13:34.584Z,1015.57
2017-11-05T23:14:57.127Z,1015.57
2017-11-05T23:16:19.807Z,1015.57
2017-11-05T23:17:42.318Z,1015.57
2017-11-05T23:19:04.889Z,1015.62
2017-11-05T23:20:27.076Z,1015.6
2017-11-05T23:21:49.362Z,1015.59
2017-11-05T23:23:11.534Z,1015.55
2017-11-05T23:24:33.403Z,1015.52
2017-11-05T23:25:55.974Z,1015.52
2017-11-05T23:27:18.169Z,1015.51
2017-11-05T23:28:40.694Z,1015.53
2017-11-05T23:30:03.291Z,1015.52
2017-11-05T23:31:25.662Z,1015.52
2017-11-05T23:32:47.832Z,1015.51
2017-11-05T23:34:09.686Z,1015.52
2017-11-05T23:35:31.543Z,1015.55
2017-11-05T23:36:53.044Z,1015.56
2017-11-05T23:38:14.605Z,1015.6
2017-11-05T23:39:36.467Z,1015.62
2017-11-05T23:40:59.051Z,1015.58
2017-11-05T23:42:21.464Z,1015.59
2017-11-05T23:43:43.666Z,1015.63
2017-11-05T23:45:05.514Z,1015.62
2017-11-05T23:46:27.094Z,1015.64
2017-11-05T23:47:48.855Z,1015.66
2017-11-05T23:49:11.356Z,1015.7
2017-11-05T23:50:33.223Z,1015.67
2017-11-05T23:51:55.750Z,1015.7
2017-11-05T23:53:18.333Z,1015.71
2017-11-05T23:54:40.836Z,1015.76
2017-11-05T23:56:02.697Z,1015.77
2017-11-05T23:57:25.250Z,1015.82
2017-11-05T23:58:47.106Z,1015.83
